Time;durP1;ratioP1;P1;durP2;ratioP2;P2;SDS_P1;SDS_P2;PMS_P1;PMS_P2;Temp;Humidity;BMP_temperature;BMP_pressure;BME280_temperature;BME280_humidity;BME280_pressure;Samples;Min_cycle;Max_cycle;Signal;HPM_P1;HPM_P2
2023/03/06 00:00:23;;;;;;;25.10;23.48;;;;;;;;;;5079067;28;20225;-79
2023/03/06 00:02:50;;;;;;;25.02;23.42;;;;;;;;;;5078180;28;20663;-79
2023/03/06 00:05:23;;;;;;;25.38;23.83;;;;;;;;;;5077136;28;20223;-79
2023/03/06 00:07:50;;;;;;;25.55;23.75;;;;;;;;;;5077572;28;20179;-79
2023/03/06 00:10:18;;;;;;;25.87;23.93;;;;;;;;;;5078083;28;20195;-78
2023/03/06 00:12:45;;;;;;;25.33;23.63;;;;;;;;;;5077269;28;20949;-79
2023/03/06 00:15:13;;;;;;;26.88;24.75;;;;;;;;;;5077504;28;20245;-79
2023/03/06 00:17:41;;;;;;;25.92;23.88;;;;;;;;;;5077327;28;20274;-79
2023/03/06 00:20:10;;;;;;;26.43;24.57;;;;;;;;;;5078117;28;20204;-79
2023/03/06 00:22:37;;;;;;;25.55;23.75;;;;;;;;;;5077962;28;20431;-79
2023/03/06 00:25:04;;;;;;;25.92;24.17;;;;;;;;;;5078381;28;20212;-79
2023/03/06 00:27:31;;;;;;;25.50;23.90;;;;;;;;;;5078156;28;20203;-79
2023/03/06 00:29:59;;;;;;;26.98;24.77;;;;;;;;;;5078615;28;20210;-79
2023/03/06 00:32:26;;;;;;;27.17;25.05;;;;;;;;;;5077939;28;20204;-80
2023/03/06 00:34:55;;;;;;;26.23;24.23;;;;;;;;;;5077646;28;20230;-80
2023/03/06 00:37:23;;;;;;;25.58;23.92;;;;;;;;;;5078489;28;20281;-79
2023/03/06 00:39:50;;;;;;;25.80;24.10;;;;;;;;;;5078633;28;20717;-79
2023/03/06 00:42:17;;;;;;;26.10;24.30;;;;;;;;;;5078116;28;20259;-79
2023/03/06 00:44:44;;;;;;;27.23;25.23;;;;;;;;;;5079432;28;20205;-79
2023/03/06 00:47:12;;;;;;;26.10;24.20;;;;;;;;;;5079517;28;20220;-80
2023/03/06 00:49:39;;;;;;;25.90;24.15;;;;;;;;;;5078452;28;20207;-79
2023/03/06 00:52:07;;;;;;;26.70;24.83;;;;;;;;;;5078308;28;20256;-79
2023/03/06 00:54:34;;;;;;;26.88;24.73;;;;;;;;;;5078274;28;20229;-79
2023/03/06 00:57:01;;;;;;;26.17;23.90;;;;;;;;;;5079165;28;20675;-79
2023/03/06 00:59:28;;;;;;;26.50;24.35;;;;;;;;;;5081419;28;20207;-79
2023/03/06 01:01:55;;;;;;;26.85;24.95;;;;;;;;;;5080798;28;20234;-79
2023/03/06 01:04:23;;;;;;;28.30;26.20;;;;;;;;;;5080477;28;20199;-79
2023/03/06 01:06:50;;;;;;;28.35;25.95;;;;;;;;;;5080742;28;20219;-79
2023/03/06 01:09:18;;;;;;;28.55;26.35;;;;;;;;;;5080584;28;20607;-79
2023/03/06 01:11:45;;;;;;;29.92;27.48;;;;;;;;;;5080489;28;20212;-79
2023/03/06 01:14:12;;;;;;;30.08;27.67;;;;;;;;;;5080899;28;20207;-80
2023/03/06 01:16:39;;;;;;;29.35;26.77;;;;;;;;;;5080443;28;20227;-79
2023/03/06 01:19:06;;;;;;;28.80;26.63;;;;;;;;;;5080166;28;20276;-78
2023/03/06 01:21:33;;;;;;;30.10;27.80;;;;;;;;;;5079887;28;20211;-79
2023/03/06 01:24:00;;;;;;;29.88;27.48;;;;;;;;;;5079978;28;20679;-79
2023/03/06 01:26:28;;;;;;;28.50;26.20;;;;;;;;;;5080002;28;20296;-79
2023/03/06 01:28:56;;;;;;;28.05;25.95;;;;;;;;;;5080411;28;20199;-79
2023/03/06 01:31:23;;;;;;;29.27;26.88;;;;;;;;;;5079992;28;20249;-80
2023/03/06 01:33:50;;;;;;;28.15;26.00;;;;;;;;;;5080595;28;20226;-80
2023/03/06 01:36:17;;;;;;;31.30;28.70;;;;;;;;;;5080152;28;20224;-79
2023/03/06 01:38:44;;;;;;;31.17;28.67;;;;;;;;;;5080188;28;20609;-79
2023/03/06 01:41:14;;;;;;;31.42;28.73;;;;;;;;;;5079940;28;20208;-79
2023/03/06 01:43:44;;;;;;;31.83;29.25;;;;;;;;;;5080152;28;20189;-79
2023/03/06 01:46:25;;;;;;;29.45;27.10;;;;;;;;;;5080149;28;20285;-79
2023/03/06 01:48:54;;;;;;;31.83;29.33;;;;;;;;;;5079960;28;20224;-79
2023/03/06 01:51:21;;;;;;;33.55;30.65;;;;;;;;;;5079547;28;20652;-80
2023/03/06 01:53:49;;;;;;;34.85;31.33;;;;;;;;;;5079992;28;20206;-79
2023/03/06 01:56:16;;;;;;;33.00;29.95;;;;;;;;;;5079857;28;20270;-79
2023/03/06 01:58:45;;;;;;;29.67;27.10;;;;;;;;;;5080286;28;20223;-79
2023/03/06 02:01:12;;;;;;;30.30;27.73;;;;;;;;;;5079824;28;20207;-80
2023/03/06 02:03:39;;;;;;;31.50;28.85;;;;;;;;;;5079468;28;20193;-79
2023/03/06 02:06:06;;;;;;;32.15;29.35;;;;;;;;;;5079826;28;20227;-79
2023/03/06 02:08:33;;;;;;;32.53;29.90;;;;;;;;;;5079732;28;20261;-79
2023/03/06 02:11:02;;;;;;;31.92;29.23;;;;;;;;;;5079048;28;20249;-79
2023/03/06 02:13:29;;;;;;;33.92;30.73;;;;;;;;;;5078610;28;20622;-79
2023/03/06 02:15:58;;;;;;;33.33;30.40;;;;;;;;;;5078918;28;20760;-79
2023/03/06 02:18:25;;;;;;;31.92;29.13;;;;;;;;;;5079140;28;20220;-79
2023/03/06 02:20:55;;;;;;;32.78;29.83;;;;;;;;;;5079225;28;20256;-79
2023/03/06 02:23:27;;;;;;;33.60;30.55;;;;;;;;;;5078497;28;20207;-79
2023/03/06 02:25:56;;;;;;;31.58;28.92;;;;;;;;;;5078874;28;20309;-79
2023/03/06 02:28:23;;;;;;;34.35;31.38;;;;;;;;;;5078299;28;20206;-79
2023/03/06 02:30:52;;;;;;;33.67;30.27;;;;;;;;;;5078572;28;20219;-79
2023/03/06 02:33:20;;;;;;;34.15;30.80;;;;;;;;;;5078149;28;20733;-79
2023/03/06 02:35:50;;;;;;;32.05;29.23;;;;;;;;;;5078904;28;20223;-79
2023/03/06 02:38:18;;;;;;;32.22;29.33;;;;;;;;;;5078508;28;20250;-79
2023/03/06 02:40:47;;;;;;;32.45;29.75;;;;;;;;;;5078743;28;20203;-79
2023/03/06 02:43:17;;;;;;;34.80;31.50;;;;;;;;;;5078244;28;20261;-79
2023/03/06 02:45:45;;;;;;;35.95;32.35;;;;;;;;;;5079182;28;20230;-79
2023/03/06 02:48:12;;;;;;;34.53;31.30;;;;;;;;;;5079496;28;20278;-79
2023/03/06 02:50:40;;;;;;;33.33;29.85;;;;;;;;;;5078282;28;20269;-79
2023/03/06 02:53:08;;;;;;;34.15;30.98;;;;;;;;;;5077923;28;20723;-79
2023/03/06 02:55:35;;;;;;;32.90;29.80;;;;;;;;;;5078814;28;20223;-78
2023/03/06 02:58:02;;;;;;;32.88;30.02;;;;;;;;;;5083526;28;20215;-79
2023/03/06 03:03:34;;;;;;;34.38;31.08;;;;;;;;;;5076712;28;20178;-79
2023/03/06 03:06:01;;;;;;;31.40;28.73;;;;;;;;;;5078900;28;20695;-79
2023/03/06 03:08:29;;;;;;;34.05;30.95;;;;;;;;;;5079166;28;20195;-79
2023/03/06 03:10:56;;;;;;;30.77;28.38;;;;;;;;;;5078442;28;20656;-79
2023/03/06 03:13:23;;;;;;;32.13;29.25;;;;;;;;;;5077968;28;20648;-79
2023/03/06 03:15:58;;;;;;;32.65;29.80;;;;;;;;;;5078085;28;20215;-79
2023/03/06 03:18:25;;;;;;;31.05;28.35;;;;;;;;;;5078331;28;20210;-79
2023/03/06 03:20:53;;;;;;;31.33;28.83;;;;;;;;;;5078091;28;20232;-79
2023/03/06 03:23:20;;;;;;;31.67;29.02;;;;;;;;;;5077152;28;20539;-79
2023/03/06 03:25:47;;;;;;;30.40;27.88;;;;;;;;;;5077377;28;20289;-79
2023/03/06 03:28:14;;;;;;;31.65;28.95;;;;;;;;;;5078091;28;20196;-79
2023/03/06 03:30:41;;;;;;;29.73;27.33;;;;;;;;;;5077483;28;20552;-80
2023/03/06 03:33:09;;;;;;;31.63;28.95;;;;;;;;;;5076700;28;20630;-79
2023/03/06 03:35:36;;;;;;;30.55;28.05;;;;;;;;;;5077459;28;20272;-79
2023/03/06 03:38:04;;;;;;;31.55;28.90;;;;;;;;;;5077539;28;20219;-79
2023/03/06 03:40:31;;;;;;;30.83;28.33;;;;;;;;;;5078109;28;20565;-79
2023/03/06 03:42:58;;;;;;;30.13;27.60;;;;;;;;;;5077131;28;20558;-79
2023/03/06 03:45:26;;;;;;;28.27;25.70;;;;;;;;;;5077705;28;20310;-79
2023/03/06 03:47:53;;;;;;;29.80;27.48;;;;;;;;;;5077377;28;20205;-79
2023/03/06 03:50:20;;;;;;;28.85;26.52;;;;;;;;;;5077415;28;20226;-79
2023/03/06 03:52:47;;;;;;;30.27;27.63;;;;;;;;;;5077012;28;20608;-79
2023/03/06 03:55:15;;;;;;;30.48;27.67;;;;;;;;;;5077416;28;20278;-79
2023/03/06 03:57:42;;;;;;;28.67;26.15;;;;;;;;;;5077025;28;20208;-79
2023/03/06 04:00:14;;;;;;;29.65;27.13;;;;;;;;;;5077278;28;20559;-79
2023/03/06 04:02:41;;;;;;;29.17;26.48;;;;;;;;;;5076305;28;20188;-80
2023/03/06 04:05:09;;;;;;;27.60;25.42;;;;;;;;;;5076579;28;20611;-79
2023/03/06 04:07:36;;;;;;;29.67;27.02;;;;;;;;;;5076926;28;20207;-79
2023/03/06 04:10:03;;;;;;;31.08;28.67;;;;;;;;;;5077087;28;20204;-79
2023/03/06 04:12:31;;;;;;;28.70;26.35;;;;;;;;;;5076437;28;20252;-79
2023/03/06 04:14:58;;;;;;;30.83;28.13;;;;;;;;;;5076454;28;20261;-79
2023/03/06 04:17:25;;;;;;;29.92;27.48;;;;;;;;;;5076945;28;20203;-79
2023/03/06 04:19:53;;;;;;;29.20;27.00;;;;;;;;;;5076688;28;20215;-81
2023/03/06 04:22:20;;;;;;;29.45;27.00;;;;;;;;;;5075997;28;20203;-79
2023/03/06 04:24:48;;;;;;;28.55;26.23;;;;;;;;;;5076581;28;20260;-79
2023/03/06 04:27:15;;;;;;;29.90;27.35;;;;;;;;;;5076783;28;20696;-79
2023/03/06 04:29:43;;;;;;;30.13;27.55;;;;;;;;;;5076657;28;20265;-79
2023/03/06 04:32:10;;;;;;;28.55;26.35;;;;;;;;;;5076914;28;20196;-79
2023/03/06 04:34:38;;;;;;;27.85;25.65;;;;;;;;;;5075992;28;20196;-79
2023/03/06 04:37:05;;;;;;;28.95;26.65;;;;;;;;;;5076749;28;20230;-79
2023/03/06 04:39:32;;;;;;;53.08;47.67;;;;;;;;;;5076561;28;20211;-79
2023/03/06 04:41:59;;;;;;;73.53;54.03;;;;;;;;;;5075622;28;20732;-79
2023/03/06 04:44:26;;;;;;;33.28;30.25;;;;;;;;;;5076472;28;20547;-79
2023/03/06 04:46:54;;;;;;;29.10;26.90;;;;;;;;;;5076320;28;20219;-79
2023/03/06 04:49:21;;;;;;;39.65;36.17;;;;;;;;;;5076643;28;20603;-79
2023/03/06 04:51:48;;;;;;;29.35;26.95;;;;;;;;;;5076100;28;20345;-79
2023/03/06 04:54:15;;;;;;;35.85;32.85;;;;;;;;;;5076887;28;20204;-79
2023/03/06 04:56:42;;;;;;;28.45;26.17;;;;;;;;;;5076512;28;20282;-79
2023/03/06 04:59:09;;;;;;;26.88;24.45;;;;;;;;;;5076481;28;20215;-79
2023/03/06 05:01:36;;;;;;;28.60;26.33;;;;;;;;;;5076316;28;20203;-80
2023/03/06 05:04:05;;;;;;;28.38;26.08;;;;;;;;;;5076994;28;20253;-79
2023/03/06 05:06:32;;;;;;;28.77;26.27;;;;;;;;;;5076141;28;20223;-79
2023/03/06 05:08:59;;;;;;;28.88;26.58;;;;;;;;;;5076155;28;20450;-79
2023/03/06 05:11:26;;;;;;;27.83;25.42;;;;;;;;;;5075551;28;20550;-80
2023/03/06 05:13:53;;;;;;;29.30;27.08;;;;;;;;;;5075892;28;20211;-79
2023/03/06 05:16:20;;;;;;;29.67;26.92;;;;;;;;;;5075742;28;20220;-79
2023/03/06 05:18:47;;;;;;;27.80;25.55;;;;;;;;;;5076919;28;20273;-80
2023/03/06 05:21:15;;;;;;;28.08;25.98;;;;;;;;;;5076286;28;20207;-79
2023/03/06 05:23:42;;;;;;;28.90;26.50;;;;;;;;;;5076190;28;20207;-79
2023/03/06 05:26:09;;;;;;;28.23;26.13;;;;;;;;;;5075835;28;20258;-79
2023/03/06 05:28:36;;;;;;;26.33;24.02;;;;;;;;;;5076332;28;20249;-79
2023/03/06 05:31:03;;;;;;;28.63;26.27;;;;;;;;;;5076330;28;20213;-79
2023/03/06 05:33:31;;;;;;;25.38;23.67;;;;;;;;;;5075910;28;20229;-79
2023/03/06 05:35:58;;;;;;;26.52;24.63;;;;;;;;;;5076082;28;20224;-79
2023/03/06 05:38:27;;;;;;;28.08;25.98;;;;;;;;;;5076462;28;20210;-79
2023/03/06 05:40:54;;;;;;;26.67;24.50;;;;;;;;;;5075721;28;20203;-79
2023/03/06 05:43:21;;;;;;;25.35;23.30;;;;;;;;;;5075321;28;20198;-79
2023/03/06 05:45:49;;;;;;;26.10;23.98;;;;;;;;;;5077267;28;20703;-79
2023/03/06 05:48:16;;;;;;;27.58;25.42;;;;;;;;;;5080095;28;20220;-79
2023/03/06 05:50:43;;;;;;;27.45;25.15;;;;;;;;;;5079816;28;20244;-79
2023/03/06 05:53:10;;;;;;;26.95;24.95;;;;;;;;;;5078594;28;20211;-79
2023/03/06 05:55:38;;;;;;;27.55;25.35;;;;;;;;;;5079422;28;20219;-79
2023/03/06 05:58:05;;;;;;;28.77;26.45;;;;;;;;;;5079658;28;20249;-79
2023/03/06 06:00:32;;;;;;;27.20;25.05;;;;;;;;;;5078975;28;20687;-79
2023/03/06 06:03:00;;;;;;;28.60;26.25;;;;;;;;;;5078473;28;20214;-79
2023/03/06 06:05:27;;;;;;;25.73;23.80;;;;;;;;;;5078586;28;20225;-79
2023/03/06 06:07:54;;;;;;;26.80;24.90;;;;;;;;;;5079204;28;20207;-79
2023/03/06 06:10:21;;;;;;;27.13;25.02;;;;;;;;;;5079349;28;20678;-79
2023/03/06 06:12:50;;;;;;;23.52;22.08;;;;;;;;;;5078366;28;20203;-79
2023/03/06 06:15:17;;;;;;;26.35;24.40;;;;;;;;;;5078886;28;20246;-79
2023/03/06 06:17:44;;;;;;;27.63;25.52;;;;;;;;;;5077449;28;20203;-79
2023/03/06 06:20:11;;;;;;;21.70;20.25;;;;;;;;;;5077997;28;20219;-79
2023/03/06 06:22:38;;;;;;;25.80;23.98;;;;;;;;;;5077540;28;20276;-79
2023/03/06 06:25:06;;;;;;;24.45;22.55;;;;;;;;;;5077831;28;20211;-79
2023/03/06 06:27:33;;;;;;;27.15;25.13;;;;;;;;;;5078228;28;20256;-79
2023/03/06 06:30:02;;;;;;;28.60;26.27;;;;;;;;;;5078257;28;20218;-79
2023/03/06 06:32:28;;;;;;;27.33;25.27;;;;;;;;;;5077459;28;20207;-79
2023/03/06 06:34:55;;;;;;;25.88;23.52;;;;;;;;;;5076162;28;20199;-76
2023/03/06 06:37:23;;;;;;;25.65;23.67;;;;;;;;;;5075575;28;20200;-76
2023/03/06 06:39:50;;;;;;;28.65;26.45;;;;;;;;;;5075656;28;20247;-77
2023/03/06 06:42:17;;;;;;;28.08;25.67;;;;;;;;;;5076608;28;20675;-79
2023/03/06 06:44:44;;;;;;;29.35;27.25;;;;;;;;;;5077547;28;20204;-79
2023/03/06 06:47:13;;;;;;;29.95;27.45;;;;;;;;;;5075275;28;20703;-76
2023/03/06 06:49:40;;;;;;;27.92;25.35;;;;;;;;;;5071661;28;20196;-76
2023/03/06 06:52:07;;;;;;;30.58;28.15;;;;;;;;;;5054954;28;20253;-76
2023/03/06 06:54:35;;;;;;;29.38;26.95;;;;;;;;;;5055543;28;20282;-76
2023/03/06 06:57:02;;;;;;;30.73;28.13;;;;;;;;;;5054952;28;20228;-76
2023/03/06 06:59:29;;;;;;;21.13;20.00;;;;;;;;;;5055171;28;20281;-76
2023/03/06 07:01:56;;;;;;;27.55;25.38;;;;;;;;;;5054677;28;20257;-76
2023/03/06 07:04:24;;;;;;;28.25;26.27;;;;;;;;;;5054476;28;20204;-76
2023/03/06 07:06:51;;;;;;;25.27;23.55;;;;;;;;;;5054834;28;20257;-76
2023/03/06 07:09:18;;;;;;;27.60;25.45;;;;;;;;;;5054944;28;20250;-76
2023/03/06 07:11:45;;;;;;;26.35;24.55;;;;;;;;;;5054914;28;20208;-77
2023/03/06 07:14:12;;;;;;;27.92;25.55;;;;;;;;;;5054466;28;20680;-77
2023/03/06 07:16:39;;;;;;;28.05;26.15;;;;;;;;;;5054928;28;20723;-76
2023/03/06 07:19:07;;;;;;;26.13;24.27;;;;;;;;;;5054636;28;20611;-77
2023/03/06 07:21:35;;;;;;;28.83;26.52;;;;;;;;;;5053885;28;20734;-77
2023/03/06 07:24:02;;;;;;;24.70;23.00;;;;;;;;;;5054294;28;20624;-78
2023/03/06 07:26:29;;;;;;;25.17;23.33;;;;;;;;;;5054786;28;20328;-74
2023/03/06 07:28:56;;;;;;;27.55;25.50;;;;;;;;;;5054647;28;20210;-74
2023/03/06 07:31:24;;;;;;;23.65;22.17;;;;;;;;;;5054027;28;20254;-74
2023/03/06 07:33:52;;;;;;;27.92;26.02;;;;;;;;;;5054740;28;20203;-74
2023/03/06 07:36:19;;;;;;;27.63;25.42;;;;;;;;;;5053857;28;20301;-74
2023/03/06 07:38:48;;;;;;;28.77;26.67;;;;;;;;;;5054194;28;20200;-74
2023/03/06 07:41:17;;;;;;;27.95;25.85;;;;;;;;;;5054437;28;20227;-75
2023/03/06 07:43:45;;;;;;;28.00;25.98;;;;;;;;;;5054760;28;20261;-74
2023/03/06 07:46:13;;;;;;;28.20;25.90;;;;;;;;;;5054348;28;20224;-74
2023/03/06 07:48:40;;;;;;;29.33;27.08;;;;;;;;;;5054808;28;20204;-74
2023/03/06 07:51:09;;;;;;;28.45;26.35;;;;;;;;;;5053812;28;20250;-79
2023/03/06 07:53:36;;;;;;;24.27;22.55;;;;;;;;;;5054331;28;20192;-76
2023/03/06 07:56:07;;;;;;;26.48;24.45;;;;;;;;;;5054173;28;20225;-76
2023/03/06 07:58:34;;;;;;;28.75;26.27;;;;;;;;;;5054555;28;20190;-74
2023/03/06 08:01:03;;;;;;;27.60;25.48;;;;;;;;;;5055114;28;20224;-74
2023/03/06 08:03:30;;;;;;;25.08;23.17;;;;;;;;;;5053884;28;20250;-74
2023/03/06 08:06:04;;;;;;;26.88;24.70;;;;;;;;;;5054374;28;20227;-75
2023/03/06 08:08:31;;;;;;;25.80;23.90;;;;;;;;;;5053588;28;20203;-75
2023/03/06 08:10:58;;;;;;;29.58;26.85;;;;;;;;;;5055240;28;20204;-85
2023/03/06 08:13:27;;;;;;;29.73;27.33;;;;;;;;;;5053444;28;20689;-77
2023/03/06 08:15:55;;;;;;;29.88;27.42;;;;;;;;;;5053420;28;20216;-75
2023/03/06 08:18:22;;;;;;;30.65;28.15;;;;;;;;;;5055478;28;20231;-78
2023/03/06 08:20:49;;;;;;;26.55;24.75;;;;;;;;;;5054716;28;20289;-77
2023/03/06 08:23:16;;;;;;;31.25;28.65;;;;;;;;;;5053419;28;20204;-77
2023/03/06 08:25:43;;;;;;;24.92;23.20;;;;;;;;;;5053647;28;20302;-78
2023/03/06 08:28:11;;;;;;;31.67;28.73;;;;;;;;;;5053396;28;20550;-77
2023/03/06 08:30:40;;;;;;;29.92;27.52;;;;;;;;;;5053802;28;20617;-77
2023/03/06 08:33:07;;;;;;;26.67;24.63;;;;;;;;;;5052755;28;20739;-77
2023/03/06 08:35:34;;;;;;;30.45;27.95;;;;;;;;;;5053522;28;20223;-77
2023/03/06 08:38:01;;;;;;;26.55;24.42;;;;;;;;;;5052978;28;20211;-77
2023/03/06 08:40:29;;;;;;;28.40;26.00;;;;;;;;;;5053833;28;20204;-77
2023/03/06 08:42:56;;;;;;;28.75;26.33;;;;;;;;;;5052804;28;20563;-77
2023/03/06 08:45:23;;;;;;;28.83;26.58;;;;;;;;;;5053536;28;20298;-77
2023/03/06 08:47:51;;;;;;;28.80;26.45;;;;;;;;;;5053697;28;20212;-77
2023/03/06 08:50:19;;;;;;;29.00;26.67;;;;;;;;;;5053682;28;20204;-76
2023/03/06 08:52:46;;;;;;;23.70;22.20;;;;;;;;;;5052589;28;20204;-77
2023/03/06 08:55:13;;;;;;;27.55;25.55;;;;;;;;;;5052978;28;20211;-77
2023/03/06 08:57:39;;;;;;;25.00;23.23;;;;;;;;;;5053590;28;20234;-77
2023/03/06 09:00:07;;;;;;;25.75;24.02;;;;;;;;;;5053359;28;20769;-77
2023/03/06 09:02:34;;;;;;;23.75;21.88;;;;;;;;;;5052828;28;20214;-76
2023/03/06 09:05:06;;;;;;;27.73;25.42;;;;;;;;;;5052900;28;20780;-76
2023/03/06 09:07:33;;;;;;;27.27;25.08;;;;;;;;;;5053433;28;20195;-77
2023/03/06 09:10:00;;;;;;;29.27;26.85;;;;;;;;;;5053528;28;20203;-76
2023/03/06 09:12:27;;;;;;;28.30;26.02;;;;;;;;;;5052899;28;20604;-77
2023/03/06 09:14:54;;;;;;;27.85;25.65;;;;;;;;;;5053352;28;20270;-77
2023/03/06 09:17:21;;;;;;;26.75;24.65;;;;;;;;;;5052554;28;20672;-77
2023/03/06 09:19:49;;;;;;;28.55;26.33;;;;;;;;;;5054262;28;20617;-76
2023/03/06 09:22:17;;;;;;;30.88;28.27;;;;;;;;;;5056280;28;20200;-76
2023/03/06 09:24:44;;;;;;;29.83;27.10;;;;;;;;;;5056668;28;20261;-77
2023/03/06 09:27:11;;;;;;;24.30;22.48;;;;;;;;;;5057134;28;20632;-77
2023/03/06 09:29:38;;;;;;;27.38;25.42;;;;;;;;;;5057162;28;20200;-77
2023/03/06 09:32:05;;;;;;;30.88;28.42;;;;;;;;;;5056590;28;20265;-77
2023/03/06 09:34:32;;;;;;;25.15;23.30;;;;;;;;;;5056335;28;20209;-78
2023/03/06 09:36:59;;;;;;;27.08;24.95;;;;;;;;;;5056874;28;20294;-77
2023/03/06 09:39:28;;;;;;;27.83;25.70;;;;;;;;;;5056820;28;20660;-77
2023/03/06 09:41:56;;;;;;;29.77;27.38;;;;;;;;;;5056268;28;20220;-76
2023/03/06 09:44:24;;;;;;;26.08;24.08;;;;;;;;;;5056827;28;20215;-77
2023/03/06 09:47:00;;;;;;;30.15;27.75;;;;;;;;;;5056103;28;20224;-76
2023/03/06 09:49:35;;;;;;;25.27;23.48;;;;;;;;;;5056847;28;20234;-77
2023/03/06 09:52:06;;;;;;;28.48;26.17;;;;;;;;;;5055759;28;20199;-77
2023/03/06 09:54:40;;;;;;;23.75;22.25;;;;;;;;;;5056384;28;20184;-77
2023/03/06 09:57:09;;;;;;;29.92;27.27;;;;;;;;;;5056574;28;20274;-77
2023/03/06 09:59:36;;;;;;;30.25;27.60;;;;;;;;;;5056666;28;20199;-77
2023/03/06 10:02:10;;;;;;;26.70;24.70;;;;;;;;;;5055965;28;20281;-77
2023/03/06 10:04:40;;;;;;;28.45;26.27;;;;;;;;;;5055529;28;20261;-76
2023/03/06 10:07:10;;;;;;;26.17;24.33;;;;;;;;;;5056323;28;20220;-77
2023/03/06 10:09:42;;;;;;;26.48;24.45;;;;;;;;;;5056462;28;20193;-76
2023/03/06 10:12:17;;;;;;;26.30;24.40;;;;;;;;;;5055694;28;20185;-77
2023/03/06 10:14:45;;;;;;;24.83;23.13;;;;;;;;;;5057157;28;20216;-77
2023/03/06 10:17:17;;;;;;;26.02;24.02;;;;;;;;;;5056924;28;20278;-82
2023/03/06 10:19:46;;;;;;;25.00;23.23;;;;;;;;;;5060327;28;20262;-82
2023/03/06 10:22:17;;;;;;;26.33;24.35;;;;;;;;;;5056050;28;20315;-78
2023/03/06 10:24:49;;;;;;;24.17;22.55;;;;;;;;;;5056407;28;20261;-76
2023/03/06 10:27:20;;;;;;;25.70;23.70;;;;;;;;;;5055401;28;20281;-76
2023/03/06 10:29:51;;;;;;;24.45;22.77;;;;;;;;;;5055699;28;20637;-76
2023/03/06 10:32:25;;;;;;;22.85;21.15;;;;;;;;;;5054657;28;20606;-76
2023/03/06 10:34:53;;;;;;;24.50;23.08;;;;;;;;;;5056172;28;20258;-76
2023/03/06 10:37:21;;;;;;;24.13;22.42;;;;;;;;;;5055797;28;20668;-76
2023/03/06 10:39:53;;;;;;;23.48;21.95;;;;;;;;;;5054075;28;20626;-76
2023/03/06 10:42:20;;;;;;;23.10;21.50;;;;;;;;;;5056207;28;20688;-76
2023/03/06 10:44:47;;;;;;;24.45;22.85;;;;;;;;;;5055729;28;20245;-76
2023/03/06 10:47:27;;;;;;;21.25;19.95;;;;;;;;;;5055281;28;20278;-75
2023/03/06 10:49:57;;;;;;;24.73;23.13;;;;;;;;;;5054597;28;20208;-76
2023/03/06 10:52:24;;;;;;;23.70;22.10;;;;;;;;;;5055178;28;20204;-76
2023/03/06 10:54:52;;;;;;;24.05;22.35;;;;;;;;;;5055514;28;20207;-75
2023/03/06 10:57:22;;;;;;;23.98;22.38;;;;;;;;;;5054278;28;20353;-78
2023/03/06 10:59:53;;;;;;;22.08;20.55;;;;;;;;;;5055386;28;20230;-74
2023/03/06 11:02:28;;;;;;;21.30;20.02;;;;;;;;;;5054779;28;20269;-74
2023/03/06 11:04:56;;;;;;;23.73;22.20;;;;;;;;;;5055340;28;20203;-74
2023/03/06 11:07:23;;;;;;;21.00;19.80;;;;;;;;;;5059385;28;20201;-75
2023/03/06 11:10:02;;;;;;;22.65;21.20;;;;;;;;;;5064759;28;20204;-75
2023/03/06 11:12:31;;;;;;;22.20;20.90;;;;;;;;;;5055440;28;20231;-80
2023/03/06 11:15:08;;;;;;;23.20;21.60;;;;;;;;;;5056700;28;20810;-80
2023/03/06 11:17:36;;;;;;;22.75;21.27;;;;;;;;;;5056106;28;20215;-76
2023/03/06 11:20:19;;;;;;;22.67;21.27;;;;;;;;;;5054995;28;20208;-75
2023/03/06 11:22:47;;;;;;;23.70;22.20;;;;;;;;;;5054397;28;20657;-75
2023/03/06 11:25:17;;;;;;;23.30;21.80;;;;;;;;;;5054345;28;20293;-75
2023/03/06 11:27:45;;;;;;;24.00;22.60;;;;;;;;;;5054146;28;20525;-75
2023/03/06 11:30:17;;;;;;;21.17;19.98;;;;;;;;;;5054904;28;20246;-75
2023/03/06 11:32:46;;;;;;;22.67;21.33;;;;;;;;;;5054441;28;20194;-75
2023/03/06 11:35:17;;;;;;;23.80;22.27;;;;;;;;;;5054687;28;20511;-75
2023/03/06 11:37:47;;;;;;;23.88;22.17;;;;;;;;;;5054127;28;20196;-74
2023/03/06 11:40:20;;;;;;;24.52;22.95;;;;;;;;;;5054576;28;20205;-74
2023/03/06 11:42:50;;;;;;;22.85;21.60;;;;;;;;;;5053319;28;20184;-75
2023/03/06 11:45:22;;;;;;;23.13;21.73;;;;;;;;;;5054365;28;20220;-75
2023/03/06 11:47:50;;;;;;;22.47;21.17;;;;;;;;;;5054054;28;20193;-75
2023/03/06 11:50:20;;;;;;;24.27;22.67;;;;;;;;;;5054098;28;20939;-75
2023/03/06 11:52:49;;;;;;;23.00;21.60;;;;;;;;;;5053328;28;20251;-74
2023/03/06 11:55:21;;;;;;;23.38;22.05;;;;;;;;;;5054206;28;20522;-75
2023/03/06 11:57:52;;;;;;;22.25;21.02;;;;;;;;;;5054325;28;20192;-75
2023/03/06 12:00:33;;;;;;;21.87;20.50;;;;;;;;;;5053576;28;20204;-75
2023/03/06 12:03:19;;;;;;;23.10;21.80;;;;;;;;;;5053536;28;20426;-75
2023/03/06 12:05:47;;;;;;;22.70;21.40;;;;;;;;;;5054252;28;20479;-75
2023/03/06 12:08:18;;;;;;;22.03;20.73;;;;;;;;;;5054097;28;20467;-75
2023/03/06 12:10:48;;;;;;;22.75;21.35;;;;;;;;;;5054161;28;20428;-75
2023/03/06 12:13:19;;;;;;;22.30;21.10;;;;;;;;;;5053931;28;20204;-75
2023/03/06 12:16:01;;;;;;;24.00;22.50;;;;;;;;;;5053406;28;20462;-75
2023/03/06 12:18:36;;;;;;;22.83;21.33;;;;;;;;;;5051185;28;20207;-75
2023/03/06 12:21:05;;;;;;;25.20;23.70;;;;;;;;;;5053821;28;20262;-75
2023/03/06 12:23:42;;;;;;;23.73;22.20;;;;;;;;;;5053344;28;20607;-76
2023/03/06 12:26:16;;;;;;;21.00;19.90;;;;;;;;;;5061090;28;20528;-75
2023/03/06 12:29:02;;;;;;;23.17;21.77;;;;;;;;;;5073804;28;20203;-75
2023/03/06 12:31:33;;;;;;;22.95;21.45;;;;;;;;;;5073533;28;20184;-75
2023/03/06 12:34:06;;;;;;;115.05;69.80;;;;;;;;;;5073719;28;20238;-75
2023/03/06 12:36:42;;;;;;;23.90;22.40;;;;;;;;;;5073488;28;20300;-75
2023/03/06 12:39:10;;;;;;;22.53;20.97;;;;;;;;;;5073972;28;20539;-75
2023/03/06 12:41:43;;;;;;;22.83;21.48;;;;;;;;;;5072031;28;20481;-75
2023/03/06 12:44:25;;;;;;;23.03;21.50;;;;;;;;;;5073541;28;20248;-75
2023/03/06 12:46:54;;;;;;;22.50;21.10;;;;;;;;;;5073390;28;20458;-75
2023/03/06 12:49:25;;;;;;;24.58;22.98;;;;;;;;;;5074219;28;20257;-75
2023/03/06 12:51:52;;;;;;;22.70;21.30;;;;;;;;;;5073067;28;20204;-75
2023/03/06 12:54:22;;;;;;;24.43;22.70;;;;;;;;;;5074296;28;20421;-75
2023/03/06 12:56:51;;;;;;;26.20;24.40;;;;;;;;;;5076610;28;20531;-75
2023/03/06 12:59:38;;;;;;;24.30;22.80;;;;;;;;;;5077732;28;20208;-75
2023/03/06 13:02:11;;;;;;;24.30;22.70;;;;;;;;;;5076646;28;20321;-75
2023/03/06 13:04:48;;;;;;;24.17;22.50;;;;;;;;;;5077557;28;20440;-75
2023/03/06 13:07:21;;;;;;;24.17;22.60;;;;;;;;;;5077243;28;20997;-79
2023/03/06 13:09:58;;;;;;;25.07;23.37;;;;;;;;;;5076897;28;20524;-76
2023/03/06 13:12:32;;;;;;;24.33;22.83;;;;;;;;;;5076690;28;20846;-76
2023/03/06 13:15:00;;;;;;;24.55;22.95;;;;;;;;;;5067869;28;20991;-77
2023/03/06 13:17:28;;;;;;;23.93;22.43;;;;;;;;;;5056925;28;20193;-77
2023/03/06 13:20:15;;;;;;;24.43;22.83;;;;;;;;;;5057208;28;20500;-76
2023/03/06 13:22:43;;;;;;;24.90;23.30;;;;;;;;;;5056500;28;20539;-75
2023/03/06 13:25:34;;;;;;;23.60;22.20;;;;;;;;;;5056369;28;20482;-75
2023/03/06 13:28:04;;;;;;;23.98;22.58;;;;;;;;;;5056893;28;20552;-75
2023/03/06 13:30:44;;;;;;;24.20;22.57;;;;;;;;;;5055813;28;20759;-75
2023/03/06 13:33:31;;;;;;;23.90;22.58;;;;;;;;;;5056620;28;20431;-75
2023/03/06 13:35:58;;;;;;;22.10;20.88;;;;;;;;;;5056167;28;20263;-75
2023/03/06 13:38:36;;;;;;;22.77;21.38;;;;;;;;;;5057017;28;20257;-75
2023/03/06 13:41:18;;;;;;;22.63;21.37;;;;;;;;;;5056040;28;20188;-75
2023/03/06 13:43:46;;;;;;;22.87;21.47;;;;;;;;;;5056258;28;20443;-75
2023/03/06 13:46:23;;;;;;;23.90;22.33;;;;;;;;;;5056505;28;20530;-75
2023/03/06 13:49:03;;;;;;;22.10;20.80;;;;;;;;;;5056558;28;20405;-75
2023/03/06 13:51:32;;;;;;;22.87;21.57;;;;;;;;;;5056114;28;20807;-76
2023/03/06 13:54:17;;;;;;;22.53;21.30;;;;;;;;;;5056612;28;20419;-76
2023/03/06 13:57:02;;;;;;;22.00;20.70;;;;;;;;;;5055756;28;21023;-76
2023/03/06 13:59:48;;;;;;;23.70;22.10;;;;;;;;;;5056037;28;20673;-76
2023/03/06 14:02:26;;;;;;;22.75;21.45;;;;;;;;;;5055812;28;20676;-76
2023/03/06 14:04:55;;;;;;;22.35;21.00;;;;;;;;;;5056444;28;20193;-76
2023/03/06 14:07:24;;;;;;;22.27;21.00;;;;;;;;;;5054390;28;20709;-76
2023/03/06 14:10:15;;;;;;;21.50;20.27;;;;;;;;;;5056500;28;20202;-78
2023/03/06 14:12:43;;;;;;;22.20;21.00;;;;;;;;;;5055758;28;20436;-75
2023/03/06 14:15:17;;;;;;;22.43;21.13;;;;;;;;;;5056042;28;20806;-75
2023/03/06 14:17:50;;;;;;;23.70;22.17;;;;;;;;;;5055459;28;20442;-75
2023/03/06 14:20:19;;;;;;;22.52;21.25;;;;;;;;;;5056052;28;20407;-75
2023/03/06 14:22:47;;;;;;;22.80;21.50;;;;;;;;;;5055710;28;20220;-76
2023/03/06 14:25:16;;;;;;;23.17;21.77;;;;;;;;;;5055561;28;20301;-75
2023/03/06 14:27:44;;;;;;;22.70;21.30;;;;;;;;;;5056024;28;20458;-75
2023/03/06 14:30:13;;;;;;;23.00;21.60;;;;;;;;;;5055953;28;20782;-75